Darstellungsparameter: Aktuell verwendete Einstellungen:
Skalierung der Graphiken ... ?
xyx+y,   Skalierungsfaktor:      Skalierung: Modus: x, Faktor: 1
Darstellungszeitraum ... ?
Vom - - bis: - -   Zeitraum: 13.04.2021 - 13.04.2021
Min/Max/Avg-Anzeige ... ?
Zeige MMA aktuell
Zeige MMA Monat
Zeige MMA alles
Zeige --A aktuell
Zeige --A Monat
Zeige --A alles
Keine MMA-Anzeige
MMA:
Keine MMA-Graphiken
MMA-Basis: 13.04.2021 - 13.04.2021
Quicknavigation für Darstellung... ?
Tage:      1T, 2T, 3T, 5T -1T -2T -3T -5T +1T +2T +3T +5T
Wochen: 1W, 2W, 3W -1W -2W -3W +1W +2W +3W
Monate: 1M, 3M, 6M -1M -3M -6M +1M +3M +6M
Jahre:    1J, 3J, 5J, 10J -1J -3J -5J -10J +1J +3J +5J +10J
Nutze für die Darstellung ... ?
Originaldaten oder Mittelwerte auf ...
Stundenbasis Tagesbasis Wochenbasis
Monatsbasis Jahresbasis      Datenbasis: Original-Daten
Darstellen als:
Statistik (Auto) Statistik J:M      Darstellung:

Der gewünschte Datumsbereich war nicht gültig/verfügbar und wurde korrigiert....
Das angegebene Enddatum (14.08.2021 23:59:59) liegt in der Zukunft.
Das angegebene Startdatum (15.07.2021 00:00:00) liegt in der Zukunft.


Zur Graphik,    zurück zur Übersicht aller Sensoren.
 
Tabellarische Datenbersicht: ?
 
Sensor: Nr:Datum:Temp:Feuchte:Taupunkt:
Aussen-T/F 1 13-04-2021 02:00:00 -0.3 C 94 % -1.15 C
2 13-04-2021 02:05:00 -0.4 C 94 % -1.25 C
3 13-04-2021 02:10:00 -0.4 C 94 % -1.25 C
4 13-04-2021 02:15:00 -0.4 C 94 % -1.25 C
5 13-04-2021 02:20:00 -0.4 C 94 % -1.25 C
6 13-04-2021 02:25:00 -0.5 C 94 % -1.34 C
7 13-04-2021 02:30:00 -0.5 C 94 % -1.34 C
8 13-04-2021 02:35:00 -0.6 C 94 % -1.44 C
9 13-04-2021 02:40:00 -0.6 C 94 % -1.44 C
10 13-04-2021 02:45:00 -0.7 C 94 % -1.54 C
11 13-04-2021 02:50:00 -0.7 C 94 % -1.54 C
12 13-04-2021 02:55:00 -0.7 C 94 % -1.54 C
13 13-04-2021 03:00:00 -0.8 C 94 % -1.64 C
14 13-04-2021 03:05:00 -0.8 C 94 % -1.64 C
15 13-04-2021 03:10:00 -0.9 C 94 % -1.74 C
16 13-04-2021 03:15:00 -0.9 C 94 % -1.74 C
17 13-04-2021 03:20:00 -0.9 C 94 % -1.74 C
18 13-04-2021 03:25:00 -1 C 94 % -1.84 C
19 13-04-2021 03:30:00 -1.1 C 94 % -1.94 C
20 13-04-2021 03:35:00 -1.1 C 94 % -1.94 C
21 13-04-2021 03:40:00 -1.1 C 94 % -1.94 C
22 13-04-2021 03:45:00 -1.1 C 94 % -1.94 C
23 13-04-2021 03:50:00 -1.1 C 94 % -1.94 C
24 13-04-2021 03:55:00 -1.2 C 94 % -2.04 C
25 13-04-2021 04:00:00 -1.2 C 94 % -2.04 C
Sensor: Nr:Datum:Temp:Feuchte:Taupunkt:
Aussen-T/F 26 13-04-2021 04:05:00 -1.2 C 94 % -2.04 C
27 13-04-2021 04:10:00 -1.2 C 95 % -1.9 C
28 13-04-2021 04:15:00 -1.2 C 95 % -1.9 C
29 13-04-2021 04:20:00 -1.2 C 95 % -1.9 C
30 13-04-2021 04:25:00 -1.3 C 95 % -2 C
31 13-04-2021 04:30:00 -1.3 C 95 % -2 C
32 13-04-2021 04:35:00 -1.3 C 95 % -2 C
33 13-04-2021 04:40:00 -1.3 C 95 % -2 C
34 13-04-2021 04:45:00 -1.3 C 95 % -2 C
35 13-04-2021 04:50:00 -1.3 C 95 % -2 C
36 13-04-2021 04:55:00 -1.3 C 95 % -2 C
37 13-04-2021 05:00:00 -1.3 C 95 % -2 C
38 13-04-2021 05:05:00 -1.3 C 95 % -2 C
39 13-04-2021 05:10:00 -1.3 C 95 % -2 C
40 13-04-2021 05:15:00 -1.3 C 95 % -2 C
41 13-04-2021 05:20:00 -1.3 C 95 % -2 C
42 13-04-2021 05:25:00 -1.4 C 95 % -2.1 C
43 13-04-2021 05:30:00 -1.4 C 95 % -2.1 C
44 13-04-2021 05:35:00 -1.4 C 95 % -2.1 C
45 13-04-2021 05:40:00 -1.4 C 95 % -2.1 C
46 13-04-2021 05:45:00 -1.4 C 95 % -2.1 C
47 13-04-2021 05:50:00 -1.4 C 95 % -2.1 C
48 13-04-2021 05:55:00 -1.3 C 95 % -2 C
49 13-04-2021 06:00:00 -1.4 C 95 % -2.1 C
50 13-04-2021 06:05:00 -1.4 C 95 % -2.1 C
Sensor: Nr:Datum:Temp:Feuchte:Taupunkt:
Aussen-T/F 51 13-04-2021 06:10:00 -1.4 C 95 % -2.1 C
52 13-04-2021 06:15:00 -1.4 C 95 % -2.1 C
53 13-04-2021 06:20:00 -1.4 C 95 % -2.1 C
54 13-04-2021 06:25:00 -1.3 C 95 % -2 C
55 13-04-2021 06:30:00 -1.3 C 95 % -2 C
56 13-04-2021 06:35:00 -1.3 C 95 % -2 C
57 13-04-2021 06:40:00 -1.4 C 95 % -2.1 C
58 13-04-2021 06:45:00 -1.4 C 95 % -2.1 C
59 13-04-2021 06:50:00 -1.4 C 95 % -2.1 C
60 13-04-2021 06:55:00 -1.5 C 95 % -2.19 C
61 13-04-2021 07:00:00 -1.5 C 95 % -2.19 C
62 13-04-2021 07:05:00 -1.5 C 95 % -2.19 C
63 13-04-2021 07:10:00 -1.4 C 95 % -2.1 C
64 13-04-2021 07:15:00 -1.4 C 95 % -2.1 C
65 13-04-2021 07:20:00 -1.3 C 95 % -2 C
66 13-04-2021 07:25:00 -1.3 C 96 % -1.85 C
67 13-04-2021 07:30:00 -1.2 C 96 % -1.75 C
68 13-04-2021 07:35:00 -1.2 C 96 % -1.75 C
69 13-04-2021 07:40:00 -1.1 C 96 % -1.66 C
70 13-04-2021 07:45:00 -1.1 C 96 % -1.66 C
71 13-04-2021 07:50:00 -1 C 95 % -1.7 C
72 13-04-2021 07:55:00 -1 C 95 % -1.7 C
73 13-04-2021 08:00:00 -0.9 C 96 % -1.46 C
74 13-04-2021 08:05:00 -0.8 C 96 % -1.36 C
75 13-04-2021 08:10:00 -0.7 C 96 % -1.26 C
Sensor: Nr:Datum:Temp:Feuchte:Taupunkt:
Aussen-T/F 76 13-04-2021 08:15:00 -0.5 C 96 % -1.06 C
77 13-04-2021 08:20:00 -0.3 C 96 % -0.86 C
78 13-04-2021 08:25:00 -0.2 C 96 % -0.76 C
79 13-04-2021 08:30:00 -0.1 C 96 % -0.66 C
80 13-04-2021 08:35:00 -0.1 C 96 % -0.66 C
81 13-04-2021 08:40:00 0 C 96 % -0.56 C
82 13-04-2021 08:45:00 0.1 C 96 % -0.46 C
83 13-04-2021 08:50:00 0.2 C 96 % -0.36 C
84 13-04-2021 08:55:00 0.3 C 96 % -0.26 C
85 13-04-2021 09:00:00 0.4 C 96 % -0.16 C
86 13-04-2021 09:05:00 0.4 C 96 % -0.16 C
87 13-04-2021 09:10:00 0.6 C 96 % 0.04 C
88 13-04-2021 09:15:00 0.7 C 96 % 0.14 C
89 13-04-2021 09:20:00 0.7 C 96 % 0.14 C
90 13-04-2021 09:25:00 0.8 C 96 % 0.24 C
91 13-04-2021 09:30:00 0.9 C 96 % 0.34 C
92 13-04-2021 09:35:00 1.1 C 96 % 0.54 C
93 13-04-2021 09:40:00 1.2 C 96 % 0.63 C
94 13-04-2021 09:45:00 1.3 C 96 % 0.73 C
95 13-04-2021 09:50:00 1.5 C 96 % 0.93 C
96 13-04-2021 09:55:00 1.7 C 96 % 1.13 C
97 13-04-2021 10:00:00 1.9 C 96 % 1.33 C
98 13-04-2021 10:05:00 2.1 C 96 % 1.53 C
99 13-04-2021 10:10:00 2.1 C 95 % 1.38 C
100 13-04-2021 10:15:00 2.2 C 95 % 1.48 C
Sensor: Nr:Datum:Temp:Feuchte:Taupunkt:
Aussen-T/F 101 13-04-2021 10:20:00 2.3 C 95 % 1.58 C
102 13-04-2021 10:25:00 2.5 C 94 % 1.63 C
103 13-04-2021 10:30:00 2.7 C 94 % 1.83 C
104 13-04-2021 10:35:00 2.9 C 93 % 1.88 C
105 13-04-2021 10:40:00 3.2 C 92 % 2.03 C
106 13-04-2021 10:45:00 3.4 C 91 % 2.07 C
107 13-04-2021 10:50:00 3.6 C 90 % 2.12 C
108 13-04-2021 10:55:00 3.9 C 89 % 2.26 C
109 13-04-2021 11:00:00 4.3 C 90 % 2.81 C
110 13-04-2021 11:05:00 4.6 C 87 % 2.63 C
111 13-04-2021 11:10:00 4.7 C 86 % 2.56 C
112 13-04-2021 11:15:00 4.7 C 84 % 2.23 C
113 13-04-2021 11:20:00 4.7 C 84 % 2.23 C
114 13-04-2021 11:25:00 4.7 C 84 % 2.23 C
115 13-04-2021 11:30:00 4.8 C 84 % 2.33 C
116 13-04-2021 11:35:00 4.9 C 83 % 2.26 C
117 13-04-2021 11:40:00 5 C 82 % 2.19 C
118 13-04-2021 11:45:00 5.2 C 82 % 2.39 C
119 13-04-2021 11:50:00 5.2 C 82 % 2.39 C
120 13-04-2021 11:55:00 5.3 C 82 % 2.48 C
121 13-04-2021 12:00:00 5.5 C 82 % 2.68 C
122 13-04-2021 12:05:00 5.6 C 81 % 2.6 C
123 13-04-2021 12:10:00 5.6 C 80 % 2.43 C
124 13-04-2021 12:15:00 5.6 C 80 % 2.43 C
125 13-04-2021 12:20:00 5.6 C 80 % 2.43 C
Sensor: Nr:Datum:Temp:Feuchte:Taupunkt:
Aussen-T/F 126 13-04-2021 12:25:00 5.4 C 79 % 2.06 C
127 13-04-2021 12:30:00 5.4 C 78 % 1.88 C
128 13-04-2021 12:35:00 5.4 C 77 % 1.7 C
129 13-04-2021 12:40:00 5.5 C 77 % 1.8 C
130 13-04-2021 12:45:00 5.7 C 79 % 2.35 C
131 13-04-2021 12:50:00 5.8 C 78 % 2.27 C
132 13-04-2021 12:55:00 5.9 C 77 % 2.19 C
133 13-04-2021 13:00:00 5.9 C 77 % 2.19 C
134 13-04-2021 13:05:00 5.9 C 78 % 2.37 C
135 13-04-2021 13:10:00 6.1 C 78 % 2.56 C
136 13-04-2021 13:15:00 6.3 C 77 % 2.57 C
137 13-04-2021 13:20:00 6.3 C 75 % 2.2 C
138 13-04-2021 13:25:00 6.3 C 75 % 2.2 C

Legende:
   Min
   Max


Maximal/Minimal-Werte vom 13.04.2021 - 13.04.2021

Sensor Min Max Avg
Temp
(Aussen-T/F)
-1.5 °C
13-04-2021  06:55:00
6.3 °C
13-04-2021  13:15:00
0.88 °C
Feuchte
(Aussen-T/F)
75 %
13-04-2021  13:20:00
96 %
13-04-2021  07:25:00
91.75 %
Taupunkt
(Aussen-T/F)
-2.19 C
13-04-2021  06:55:00
2.81 C
13-04-2021  11:00:00
-0.35 C

Die Daten stammen von einer Davis Vantage Pro 2 Wetter-Station und werden unter Linux mit der Software wview2wettercgi und aufbereitet. Alle Angaben erfolgen ohne Gewähr für ihre Vollständigkeit oder Richtigkeit.
Kontakt: Rainer Krienke krienke@uni-koblenz.de . Meine Webseiten an der Uni Koblenz oder privat.
Version: $Revision: 0.78 $